sensor_id;sensor_type;location;lat;lon;timestamp;pressure;altitude;pressure_sealevel;temperature
14851;BMP180;7517;48.400;11.770;2023-08-31T01:35:22;95900.00;;;17.30
14851;BMP180;7517;48.400;11.770;2023-08-31T01:37:53;95912.00;;;17.30
14851;BMP180;7517;48.400;11.770;2023-08-31T01:40:33;95914.00;;;17.30
14851;BMP180;7517;48.400;11.770;2023-08-31T01:43:02;95916.00;;;17.30
14851;BMP180;7517;48.400;11.770;2023-08-31T01:45:31;95918.00;;;17.30
14851;BMP180;7517;48.400;11.770;2023-08-31T01:47:59;95916.00;;;17.30
14851;BMP180;7517;48.400;11.770;2023-08-31T01:50:28;95915.00;;;17.30
14851;BMP180;7517;48.400;11.770;2023-08-31T01:52:55;95916.00;;;17.30
14851;BMP180;7517;48.400;11.770;2023-08-31T01:55:23;95917.00;;;17.30
14851;BMP180;7517;48.400;11.770;2023-08-31T01:57:50;95916.00;;;17.30
14851;BMP180;7517;48.400;11.770;2023-08-31T02:00:19;95920.00;;;17.30
14851;BMP180;7517;48.400;11.770;2023-08-31T02:02:47;95916.00;;;17.30
14851;BMP180;7517;48.400;11.770;2023-08-31T02:05:14;95928.00;;;17.30
14851;BMP180;7517;48.400;11.770;2023-08-31T02:07:43;95924.00;;;17.30
14851;BMP180;7517;48.400;11.770;2023-08-31T02:10:10;95936.00;;;17.40
14851;BMP180;7517;48.400;11.770;2023-08-31T02:12:37;95931.00;;;17.40
14851;BMP180;7517;48.400;11.770;2023-08-31T02:15:05;95943.00;;;17.40
14851;BMP180;7517;48.400;11.770;2023-08-31T02:17:34;95954.00;;;17.40
14851;BMP180;7517;48.400;11.770;2023-08-31T02:20:02;95956.00;;;17.50
14851;BMP180;7517;48.400;11.770;2023-08-31T02:22:30;95946.00;;;17.50
14851;BMP180;7517;48.400;11.770;2023-08-31T02:24:59;95948.00;;;17.50
14851;BMP180;7517;48.400;11.770;2023-08-31T02:27:27;95965.00;;;17.50
14851;BMP180;7517;48.400;11.770;2023-08-31T02:29:54;95956.00;;;17.60
14851;BMP180;7517;48.400;11.770;2023-08-31T02:32:21;95971.00;;;17.60
14851;BMP180;7517;48.400;11.770;2023-08-31T02:34:49;95964.00;;;17.60
14851;BMP180;7517;48.400;11.770;2023-08-31T02:37:17;95971.00;;;17.70
14851;BMP180;7517;48.400;11.770;2023-08-31T02:39:44;95971.00;;;17.70
14851;BMP180;7517;48.400;11.770;2023-08-31T02:42:14;95975.00;;;17.70
14851;BMP180;7517;48.400;11.770;2023-08-31T02:44:41;95966.00;;;17.70
14851;BMP180;7517;48.400;11.770;2023-08-31T02:47:08;95966.00;;;17.80
14851;BMP180;7517;48.400;11.770;2023-08-31T02:49:35;95973.00;;;17.80
14851;BMP180;7517;48.400;11.770;2023-08-31T02:52:03;95975.00;;;17.80
14851;BMP180;7517;48.400;11.770;2023-08-31T02:54:30;95975.00;;;17.80
14851;BMP180;7517;48.400;11.770;2023-08-31T02:56:57;95975.00;;;17.80
14851;BMP180;7517;48.400;11.770;2023-08-31T02:59:27;95978.00;;;17.80
14851;BMP180;7517;48.400;11.770;2023-08-31T03:01:54;95963.00;;;17.80
14851;BMP180;7517;48.400;11.770;2023-08-31T03:04:21;95962.00;;;17.80
14851;BMP180;7517;48.400;11.770;2023-08-31T03:06:48;95960.00;;;17.80
14851;BMP180;7517;48.400;11.770;2023-08-31T03:09:16;95956.00;;;17.90
14851;BMP180;7517;48.400;11.770;2023-08-31T03:11:43;95952.00;;;17.90
14851;BMP180;7517;48.400;11.770;2023-08-31T03:14:10;95953.00;;;17.90
14851;BMP180;7517;48.400;11.770;2023-08-31T03:16:38;95961.00;;;17.90
14851;BMP180;7517;48.400;11.770;2023-08-31T03:19:06;95960.00;;;17.90
14851;BMP180;7517;48.400;11.770;2023-08-31T03:21:33;95972.00;;;17.90
14851;BMP180;7517;48.400;11.770;2023-08-31T03:24:00;95966.00;;;17.90
14851;BMP180;7517;48.400;11.770;2023-08-31T03:26:28;95964.00;;;17.90
14851;BMP180;7517;48.400;11.770;2023-08-31T03:28:56;95963.00;;;17.90
14851;BMP180;7517;48.400;11.770;2023-08-31T03:31:23;95975.00;;;17.90
14851;BMP180;7517;48.400;11.770;2023-08-31T03:33:52;95962.00;;;17.90
14851;BMP180;7517;48.400;11.770;2023-08-31T03:36:19;95954.00;;;17.90
14851;BMP180;7517;48.400;11.770;2023-08-31T03:38:46;95951.00;;;17.90
14851;BMP180;7517;48.400;11.770;2023-08-31T03:41:13;95960.00;;;17.90
14851;BMP180;7517;48.400;11.770;2023-08-31T03:43:40;95978.00;;;17.90
14851;BMP180;7517;48.400;11.770;2023-08-31T03:46:08;95975.00;;;17.90
14851;BMP180;7517;48.400;11.770;2023-08-31T03:48:35;95986.00;;;17.90
14851;BMP180;7517;48.400;11.770;2023-08-31T03:51:04;96000.00;;;17.90
14851;BMP180;7517;48.400;11.770;2023-08-31T03:53:31;96006.00;;;17.80
14851;BMP180;7517;48.400;11.770;2023-08-31T03:55:58;96011.00;;;17.90
14851;BMP180;7517;48.400;11.770;2023-08-31T03:58:25;96014.00;;;17.90
14851;BMP180;7517;48.400;11.770;2023-08-31T04:00:52;96020.00;;;17.90
14851;BMP180;7517;48.400;11.770;2023-08-31T04:03:20;96022.00;;;17.90
14851;BMP180;7517;48.400;11.770;2023-08-31T04:05:47;96024.00;;;17.90
14851;BMP180;7517;48.400;11.770;2023-08-31T04:08:16;96018.00;;;17.90
14851;BMP180;7517;48.400;11.770;2023-08-31T04:10:43;96024.00;;;17.90
14851;BMP180;7517;48.400;11.770;2023-08-31T04:13:11;96029.00;;;17.90
14851;BMP180;7517;48.400;11.770;2023-08-31T04:15:38;96021.00;;;17.90
14851;BMP180;7517;48.400;11.770;2023-08-31T04:18:05;96016.00;;;17.90
14851;BMP180;7517;48.400;11.770;2023-08-31T04:20:33;96025.00;;;17.90
14851;BMP180;7517;48.400;11.770;2023-08-31T04:23:00;96036.00;;;17.90
14851;BMP180;7517;48.400;11.770;2023-08-31T04:25:30;96039.00;;;17.90
14851;BMP180;7517;48.400;11.770;2023-08-31T04:27:57;96043.00;;;17.90
14851;BMP180;7517;48.400;11.770;2023-08-31T04:30:24;96054.00;;;17.80
14851;BMP180;7517;48.400;11.770;2023-08-31T04:32:52;96050.00;;;17.80
14851;BMP180;7517;48.400;11.770;2023-08-31T04:35:20;96058.00;;;17.80
14851;BMP180;7517;48.400;11.770;2023-08-31T04:37:47;96064.00;;;17.80
14851;BMP180;7517;48.400;11.770;2023-08-31T04:40:14;96061.00;;;17.80
14851;BMP180;7517;48.400;11.770;2023-08-31T04:42:43;96062.00;;;17.80
14851;BMP180;7517;48.400;11.770;2023-08-31T04:45:10;96059.00;;;17.80
14851;BMP180;7517;48.400;11.770;2023-08-31T04:47:38;96066.00;;;17.80
14851;BMP180;7517;48.400;11.770;2023-08-31T04:50:07;96073.00;;;17.70
14851;BMP180;7517;48.400;11.770;2023-08-31T04:52:34;96072.00;;;17.70
14851;BMP180;7517;48.400;11.770;2023-08-31T04:55:02;96067.00;;;17.70
14851;BMP180;7517;48.400;11.770;2023-08-31T04:57:30;96077.00;;;17.70
14851;BMP180;7517;48.400;11.770;2023-08-31T04:59:59;96083.00;;;17.70
14851;BMP180;7517;48.400;11.770;2023-08-31T05:02:27;96078.00;;;17.70
14851;BMP180;7517;48.400;11.770;2023-08-31T05:04:54;96081.00;;;17.70
14851;BMP180;7517;48.400;11.770;2023-08-31T05:07:21;96083.00;;;17.70
14851;BMP180;7517;48.400;11.770;2023-08-31T05:09:49;96087.00;;;17.70
14851;BMP180;7517;48.400;11.770;2023-08-31T05:12:16;96081.00;;;17.70
14851;BMP180;7517;48.400;11.770;2023-08-31T05:14:43;96084.00;;;17.70
14851;BMP180;7517;48.400;11.770;2023-08-31T05:17:12;96096.00;;;17.80
14851;BMP180;7517;48.400;11.770;2023-08-31T05:19:39;96098.00;;;17.70
14851;BMP180;7517;48.400;11.770;2023-08-31T05:22:06;96098.00;;;17.80
14851;BMP180;7517;48.400;11.770;2023-08-31T05:24:33;96097.00;;;17.80
14851;BMP180;7517;48.400;11.770;2023-08-31T05:27:00;96104.00;;;17.80
14851;BMP180;7517;48.400;11.770;2023-08-31T05:29:29;96105.00;;;17.80
14851;BMP180;7517;48.400;11.770;2023-08-31T05:31:57;96113.00;;;17.80
14851;BMP180;7517;48.400;11.770;2023-08-31T05:34:25;96120.00;;;17.80
14851;BMP180;7517;48.400;11.770;2023-08-31T05:36:53;96126.00;;;17.80
14851;BMP180;7517;48.400;11.770;2023-08-31T05:39:20;96127.00;;;17.80
14851;BMP180;7517;48.400;11.770;2023-08-31T05:41:47;96127.00;;;17.80
14851;BMP180;7517;48.400;11.770;2023-08-31T05:44:15;96132.00;;;17.90
14851;BMP180;7517;48.400;11.770;2023-08-31T05:46:43;96137.00;;;17.90
14851;BMP180;7517;48.400;11.770;2023-08-31T05:49:10;96148.00;;;17.90
14851;BMP180;7517;48.400;11.770;2023-08-31T05:51:39;96147.00;;;18.00
14851;BMP180;7517;48.400;11.770;2023-08-31T05:54:06;96142.00;;;18.00
14851;BMP180;7517;48.400;11.770;2023-08-31T05:56:38;96142.00;;;18.00
14851;BMP180;7517;48.400;11.770;2023-08-31T05:59:06;96138.00;;;18.10
14851;BMP180;7517;48.400;11.770;2023-08-31T06:01:35;96135.00;;;18.10
14851;BMP180;7517;48.400;11.770;2023-08-31T06:04:03;96136.00;;;18.10
14851;BMP180;7517;48.400;11.770;2023-08-31T06:06:31;96129.00;;;18.10
14851;BMP180;7517;48.400;11.770;2023-08-31T06:09:01;96140.00;;;18.20
14851;BMP180;7517;48.400;11.770;2023-08-31T06:11:29;96140.00;;;18.20
14851;BMP180;7517;48.400;11.770;2023-08-31T06:13:56;96141.00;;;18.20
14851;BMP180;7517;48.400;11.770;2023-08-31T06:16:23;96137.00;;;18.20
14851;BMP180;7517;48.400;11.770;2023-08-31T06:18:51;96141.00;;;18.20
14851;BMP180;7517;48.400;11.770;2023-08-31T06:21:19;96140.00;;;18.20
14851;BMP180;7517;48.400;11.770;2023-08-31T06:23:46;96148.00;;;18.20
14851;BMP180;7517;48.400;11.770;2023-08-31T06:26:14;96157.00;;;18.30
14851;BMP180;7517;48.400;11.770;2023-08-31T06:28:42;96152.00;;;18.30
14851;BMP180;7517;48.400;11.770;2023-08-31T06:31:10;96146.00;;;18.30
14851;BMP180;7517;48.400;11.770;2023-08-31T06:33:37;96154.00;;;18.30
14851;BMP180;7517;48.400;11.770;2023-08-31T06:36:04;96157.00;;;18.30
14851;BMP180;7517;48.400;11.770;2023-08-31T06:38:31;96173.00;;;18.30
14851;BMP180;7517;48.400;11.770;2023-08-31T06:40:58;96170.00;;;18.30
14851;BMP180;7517;48.400;11.770;2023-08-31T06:43:27;96169.00;;;18.30
14851;BMP180;7517;48.400;11.770;2023-08-31T06:45:54;96168.00;;;18.40
14851;BMP180;7517;48.400;11.770;2023-08-31T06:48:22;96172.00;;;18.40
14851;BMP180;7517;48.400;11.770;2023-08-31T06:50:49;96178.00;;;18.40
14851;BMP180;7517;48.400;11.770;2023-08-31T06:53:17;96179.00;;;18.40
14851;BMP180;7517;48.400;11.770;2023-08-31T06:55:45;96190.00;;;18.50
14851;BMP180;7517;48.400;11.770;2023-08-31T06:58:12;96190.00;;;18.50
14851;BMP180;7517;48.400;11.770;2023-08-31T07:00:40;96196.00;;;18.50
14851;BMP180;7517;48.400;11.770;2023-08-31T07:03:08;96198.00;;;18.50
14851;BMP180;7517;48.400;11.770;2023-08-31T07:05:37;96182.00;;;18.60
14851;BMP180;7517;48.400;11.770;2023-08-31T07:08:08;96195.00;;;18.60
14851;BMP180;7517;48.400;11.770;2023-08-31T07:10:35;96195.00;;;18.60
14851;BMP180;7517;48.400;11.770;2023-08-31T07:13:03;96195.00;;;18.70
14851;BMP180;7517;48.400;11.770;2023-08-31T07:15:30;96197.00;;;18.70
14851;BMP180;7517;48.400;11.770;2023-08-31T07:17:59;96198.00;;;18.70
14851;BMP180;7517;48.400;11.770;2023-08-31T07:20:27;96207.00;;;18.80
14851;BMP180;7517;48.400;11.770;2023-08-31T07:22:54;96200.00;;;18.80
14851;BMP180;7517;48.400;11.770;2023-08-31T07:25:21;96200.00;;;18.80
14851;BMP180;7517;48.400;11.770;2023-08-31T07:27:48;96196.00;;;18.80
14851;BMP180;7517;48.400;11.770;2023-08-31T07:30:15;96201.00;;;18.80
14851;BMP180;7517;48.400;11.770;2023-08-31T07:32:42;96204.00;;;18.90
14851;BMP180;7517;48.400;11.770;2023-08-31T07:35:11;96209.00;;;18.90
14851;BMP180;7517;48.400;11.770;2023-08-31T07:37:39;96208.00;;;18.90
14851;BMP180;7517;48.400;11.770;2023-08-31T07:40:09;96217.00;;;18.90
14851;BMP180;7517;48.400;11.770;2023-08-31T07:42:36;96217.00;;;18.90
14851;BMP180;7517;48.400;11.770;2023-08-31T07:45:06;96222.00;;;18.90
14851;BMP180;7517;48.400;11.770;2023-08-31T07:47:35;96228.00;;;18.90
14851;BMP180;7517;48.400;11.770;2023-08-31T07:50:02;96227.00;;;18.90
14851;BMP180;7517;48.400;11.770;2023-08-31T07:52:32;96239.00;;;19.00
14851;BMP180;7517;48.400;11.770;2023-08-31T07:55:00;96230.00;;;19.00
14851;BMP180;7517;48.400;11.770;2023-08-31T07:57:28;96233.00;;;19.00
14851;BMP180;7517;48.400;11.770;2023-08-31T07:59:55;96229.00;;;19.00
14851;BMP180;7517;48.400;11.770;2023-08-31T08:02:22;96239.00;;;19.10
14851;BMP180;7517;48.400;11.770;2023-08-31T08:04:49;96238.00;;;19.10
14851;BMP180;7517;48.400;11.770;2023-08-31T08:07:16;96242.00;;;19.10
14851;BMP180;7517;48.400;11.770;2023-08-31T08:09:45;96240.00;;;19.20
14851;BMP180;7517;48.400;11.770;2023-08-31T08:12:12;96246.00;;;19.20
14851;BMP180;7517;48.400;11.770;2023-08-31T08:14:39;96248.00;;;19.30
14851;BMP180;7517;48.400;11.770;2023-08-31T08:17:07;96244.00;;;19.30
14851;BMP180;7517;48.400;11.770;2023-08-31T08:19:34;96247.00;;;19.40
14851;BMP180;7517;48.400;11.770;2023-08-31T08:22:02;96248.00;;;19.40
14851;BMP180;7517;48.400;11.770;2023-08-31T08:24:29;96249.00;;;19.40
14851;BMP180;7517;48.400;11.770;2023-08-31T08:26:58;96254.00;;;19.40
14851;BMP180;7517;48.400;11.770;2023-08-31T08:29:25;96259.00;;;19.50
14851;BMP180;7517;48.400;11.770;2023-08-31T08:31:52;96264.00;;;19.40
14851;BMP180;7517;48.400;11.770;2023-08-31T08:34:20;96265.00;;;19.40
14851;BMP180;7517;48.400;11.770;2023-08-31T08:36:47;96268.00;;;19.40
14851;BMP180;7517;48.400;11.770;2023-08-31T08:39:14;96262.00;;;19.40
14851;BMP180;7517;48.400;11.770;2023-08-31T08:41:42;96271.00;;;19.40
14851;BMP180;7517;48.400;11.770;2023-08-31T08:44:14;96273.00;;;19.40
14851;BMP180;7517;48.400;11.770;2023-08-31T08:46:45;96284.00;;;19.40
14851;BMP180;7517;48.400;11.770;2023-08-31T08:49:15;96281.00;;;19.40
14851;BMP180;7517;48.400;11.770;2023-08-31T08:51:43;96290.00;;;19.40
14851;BMP180;7517;48.400;11.770;2023-08-31T08:54:13;96287.00;;;19.40
14851;BMP180;7517;48.400;11.770;2023-08-31T08:56:40;96289.00;;;19.40
14851;BMP180;7517;48.400;11.770;2023-08-31T08:59:07;96285.00;;;19.40
14851;BMP180;7517;48.400;11.770;2023-08-31T09:01:37;96283.00;;;19.40
14851;BMP180;7517;48.400;11.770;2023-08-31T09:04:05;96288.00;;;19.40
14851;BMP180;7517;48.400;11.770;2023-08-31T09:06:33;96292.00;;;19.40
14851;BMP180;7517;48.400;11.770;2023-08-31T09:09:00;96299.00;;;19.40
14851;BMP180;7517;48.400;11.770;2023-08-31T09:11:29;96303.00;;;19.30
14851;BMP180;7517;48.400;11.770;2023-08-31T09:13:57;96298.00;;;19.30
14851;BMP180;7517;48.400;11.770;2023-08-31T09:16:28;96305.00;;;19.30
14851;BMP180;7517;48.400;11.770;2023-08-31T09:18:58;96309.00;;;19.30
14851;BMP180;7517;48.400;11.770;2023-08-31T09:21:35;96311.00;;;19.30
14851;BMP180;7517;48.400;11.770;2023-08-31T09:24:05;96302.00;;;19.30
14851;BMP180;7517;48.400;11.770;2023-08-31T09:26:38;96313.00;;;19.30
14851;BMP180;7517;48.400;11.770;2023-08-31T09:29:09;96313.00;;;19.30
14851;BMP180;7517;48.400;11.770;2023-08-31T09:31:37;96307.00;;;19.30
14851;BMP180;7517;48.400;11.770;2023-08-31T09:34:05;96297.00;;;19.30
14851;BMP180;7517;48.400;11.770;2023-08-31T09:36:33;96292.00;;;19.30
14851;BMP180;7517;48.400;11.770;2023-08-31T09:39:00;96298.00;;;19.40
14851;BMP180;7517;48.400;11.770;2023-08-31T09:41:28;96304.00;;;19.40
14851;BMP180;7517;48.400;11.770;2023-08-31T09:43:55;96303.00;;;19.40
14851;BMP180;7517;48.400;11.770;2023-08-31T09:46:23;96304.00;;;19.40
14851;BMP180;7517;48.400;11.770;2023-08-31T09:48:52;96312.00;;;19.50
14851;BMP180;7517;48.400;11.770;2023-08-31T09:51:23;96312.00;;;19.50
14851;BMP180;7517;48.400;11.770;2023-08-31T09:53:57;96307.00;;;19.60
14851;BMP180;7517;48.400;11.770;2023-08-31T09:56:28;96305.00;;;19.60
14851;BMP180;7517;48.400;11.770;2023-08-31T09:58:57;96308.00;;;19.70
14851;BMP180;7517;48.400;11.770;2023-08-31T10:01:24;96297.00;;;19.70
14851;BMP180;7517;48.400;11.770;2023-08-31T10:03:52;96304.00;;;19.80
14851;BMP180;7517;48.400;11.770;2023-08-31T10:06:22;96304.00;;;19.80
14851;BMP180;7517;48.400;11.770;2023-08-31T10:08:50;96312.00;;;19.90
14851;BMP180;7517;48.400;11.770;2023-08-31T10:11:19;96306.00;;;19.90
14851;BMP180;7517;48.400;11.770;2023-08-31T10:13:48;96299.00;;;20.00
14851;BMP180;7517;48.400;11.770;2023-08-31T10:16:17;96303.00;;;20.10
14851;BMP180;7517;48.400;11.770;2023-08-31T10:18:45;96303.00;;;20.20
14851;BMP180;7517;48.400;11.770;2023-08-31T10:21:17;96298.00;;;20.30
14851;BMP180;7517;48.400;11.770;2023-08-31T10:23:47;96299.00;;;20.40
14851;BMP180;7517;48.400;11.770;2023-08-31T10:26:24;96310.00;;;20.50
14851;BMP180;7517;48.400;11.770;2023-08-31T10:28:52;96322.00;;;20.60
14851;BMP180;7517;48.400;11.770;2023-08-31T10:31:21;96310.00;;;20.60
14851;BMP180;7517;48.400;11.770;2023-08-31T10:33:56;96302.00;;;20.60
14851;BMP180;7517;48.400;11.770;2023-08-31T10:36:36;96301.00;;;20.60
14851;BMP180;7517;48.400;11.770;2023-08-31T10:39:13;96304.00;;;20.70
14851;BMP180;7517;48.400;11.770;2023-08-31T10:41:42;96306.00;;;20.70
14851;BMP180;7517;48.400;11.770;2023-08-31T10:44:20;96296.00;;;20.70
14851;BMP180;7517;48.400;11.770;2023-08-31T10:46:49;96307.00;;;20.70
14851;BMP180;7517;48.400;11.770;2023-08-31T10:49:19;96306.00;;;20.60
14851;BMP180;7517;48.400;11.770;2023-08-31T10:51:53;96304.00;;;20.60
14851;BMP180;7517;48.400;11.770;2023-08-31T10:54:25;96295.00;;;20.60
14851;BMP180;7517;48.400;11.770;2023-08-31T10:57:03;96292.00;;;20.50
14851;BMP180;7517;48.400;11.770;2023-08-31T10:59:48;96299.00;;;20.50
14851;BMP180;7517;48.400;11.770;2023-08-31T11:02:33;96292.00;;;20.40
14851;BMP180;7517;48.400;11.770;2023-08-31T11:05:05;96290.00;;;20.40
14851;BMP180;7517;48.400;11.770;2023-08-31T11:07:34;96287.00;;;20.40
14851;BMP180;7517;48.400;11.770;2023-08-31T11:10:19;96292.00;;;20.30
14851;BMP180;7517;48.400;11.770;2023-08-31T11:12:50;96302.00;;;20.30
14851;BMP180;7517;48.400;11.770;2023-08-31T11:15:20;96312.00;;;20.30
14851;BMP180;7517;48.400;11.770;2023-08-31T11:17:50;96313.00;;;20.30
14851;BMP180;7517;48.400;11.770;2023-08-31T11:20:22;96313.00;;;20.40
14851;BMP180;7517;48.400;11.770;2023-08-31T11:22:51;96311.00;;;20.40
14851;BMP180;7517;48.400;11.770;2023-08-31T11:25:21;96300.00;;;20.50
14851;BMP180;7517;48.400;11.770;2023-08-31T11:27:57;96296.00;;;20.50
14851;BMP180;7517;48.400;11.770;2023-08-31T11:30:26;96302.00;;;20.60
14851;BMP180;7517;48.400;11.770;2023-08-31T11:32:54;96303.00;;;20.70
14851;BMP180;7517;48.400;11.770;2023-08-31T11:35:23;96297.00;;;20.70
14851;BMP180;7517;48.400;11.770;2023-08-31T11:37:54;96299.00;;;20.70
14851;BMP180;7517;48.400;11.770;2023-08-31T11:40:25;96296.00;;;20.80
14851;BMP180;7517;48.400;11.770;2023-08-31T11:42:53;96298.00;;;20.80
14851;BMP180;7517;48.400;11.770;2023-08-31T11:45:22;96298.00;;;20.80
14851;BMP180;7517;48.400;11.770;2023-08-31T11:47:53;96301.00;;;20.80
14851;BMP180;7517;48.400;11.770;2023-08-31T11:50:23;96302.00;;;20.90
14851;BMP180;7517;48.400;11.770;2023-08-31T11:52:51;96309.00;;;20.90
14851;BMP180;7517;48.400;11.770;2023-08-31T11:55:20;96313.00;;;20.90
14851;BMP180;7517;48.400;11.770;2023-08-31T11:57:53;96320.00;;;20.90
14851;BMP180;7517;48.400;11.770;2023-08-31T12:00:23;96314.00;;;20.90
14851;BMP180;7517;48.400;11.770;2023-08-31T12:02:57;96314.00;;;20.90
14851;BMP180;7517;48.400;11.770;2023-08-31T12:05:25;96313.00;;;20.90
14851;BMP180;7517;48.400;11.770;2023-08-31T12:07:54;96315.00;;;20.80
14851;BMP180;7517;48.400;11.770;2023-08-31T12:10:24;96315.00;;;20.80
14851;BMP180;7517;48.400;11.770;2023-08-31T12:12:53;96318.00;;;20.80
14851;BMP180;7517;48.400;11.770;2023-08-31T12:15:21;96321.00;;;20.80
14851;BMP180;7517;48.400;11.770;2023-08-31T12:17:49;96326.00;;;20.80
14851;BMP180;7517;48.400;11.770;2023-08-31T12:20:25;96322.00;;;20.80
14851;BMP180;7517;48.400;11.770;2023-08-31T12:22:53;96331.00;;;20.80
14851;BMP180;7517;48.400;11.770;2023-08-31T12:25:20;96329.00;;;20.80
14851;BMP180;7517;48.400;11.770;2023-08-31T12:27:48;96333.00;;;20.80
14851;BMP180;7517;48.400;11.770;2023-08-31T12:30:17;96340.00;;;20.80
14851;BMP180;7517;48.400;11.770;2023-08-31T12:32:44;96342.00;;;20.80
14851;BMP180;7517;48.400;11.770;2023-08-31T12:35:12;96336.00;;;20.80
14851;BMP180;7517;48.400;11.770;2023-08-31T12:37:40;96338.00;;;20.80
14851;BMP180;7517;48.400;11.770;2023-08-31T12:40:08;96334.00;;;20.80
14851;BMP180;7517;48.400;11.770;2023-08-31T12:42:37;96334.00;;;20.80
14851;BMP180;7517;48.400;11.770;2023-08-31T12:45:05;96343.00;;;20.80
14851;BMP180;7517;48.400;11.770;2023-08-31T12:47:34;96345.00;;;20.80
14851;BMP180;7517;48.400;11.770;2023-08-31T12:50:02;96337.00;;;20.80
14851;BMP180;7517;48.400;11.770;2023-08-31T12:52:29;96337.00;;;20.80
14851;BMP180;7517;48.400;11.770;2023-08-31T12:54:56;96340.00;;;20.80
14851;BMP180;7517;48.400;11.770;2023-08-31T12:57:23;96343.00;;;20.80
14851;BMP180;7517;48.400;11.770;2023-08-31T12:59:51;96332.00;;;20.80
14851;BMP180;7517;48.400;11.770;2023-08-31T13:02:18;96333.00;;;20.70
14851;BMP180;7517;48.400;11.770;2023-08-31T13:04:47;96338.00;;;20.70
14851;BMP180;7517;48.400;11.770;2023-08-31T13:07:14;96333.00;;;20.70
14851;BMP180;7517;48.400;11.770;2023-08-31T13:09:41;96347.00;;;20.70
14851;BMP180;7517;48.400;11.770;2023-08-31T13:12:09;96336.00;;;20.70
14851;BMP180;7517;48.400;11.770;2023-08-31T13:14:36;96344.00;;;20.70
14851;BMP180;7517;48.400;11.770;2023-08-31T13:17:04;96351.00;;;20.70
14851;BMP180;7517;48.400;11.770;2023-08-31T13:19:32;96345.00;;;20.70
14851;BMP180;7517;48.400;11.770;2023-08-31T13:22:00;96348.00;;;20.70
14851;BMP180;7517;48.400;11.770;2023-08-31T13:24:29;96341.00;;;20.70
14851;BMP180;7517;48.400;11.770;2023-08-31T13:26:57;96348.00;;;20.70
14851;BMP180;7517;48.400;11.770;2023-08-31T13:29:24;96348.00;;;20.70
14851;BMP180;7517;48.400;11.770;2023-08-31T13:31:52;96348.00;;;20.70
14851;BMP180;7517;48.400;11.770;2023-08-31T13:34:19;96344.00;;;20.70
14851;BMP180;7517;48.400;11.770;2023-08-31T13:36:46;96352.00;;;20.80
14851;BMP180;7517;48.400;11.770;2023-08-31T13:39:15;96350.00;;;20.80
14851;BMP180;7517;48.400;11.770;2023-08-31T13:41:42;96345.00;;;20.80
14851;BMP180;7517;48.400;11.770;2023-08-31T13:44:08;96347.00;;;20.80
14851;BMP180;7517;48.400;11.770;2023-08-31T13:46:35;96347.00;;;20.90
14851;BMP180;7517;48.400;11.770;2023-08-31T13:49:03;96343.00;;;20.90
14851;BMP180;7517;48.400;11.770;2023-08-31T13:51:30;96344.00;;;20.90
14851;BMP180;7517;48.400;11.770;2023-08-31T13:53:57;96339.00;;;20.90
14851;BMP180;7517;48.400;11.770;2023-08-31T13:56:25;96338.00;;;21.00
14851;BMP180;7517;48.400;11.770;2023-08-31T13:58:52;96338.00;;;21.00
14851;BMP180;7517;48.400;11.770;2023-08-31T14:01:20;96335.00;;;21.00
14851;BMP180;7517;48.400;11.770;2023-08-31T14:03:47;96337.00;;;21.00
14851;BMP180;7517;48.400;11.770;2023-08-31T14:06:14;96329.00;;;21.00
14851;BMP180;7517;48.400;11.770;2023-08-31T14:08:41;96333.00;;;21.00
14851;BMP180;7517;48.400;11.770;2023-08-31T14:11:09;96326.00;;;21.00
14851;BMP180;7517;48.400;11.770;2023-08-31T14:13:37;96327.00;;;21.00
14851;BMP180;7517;48.400;11.770;2023-08-31T14:16:06;96332.00;;;21.00
14851;BMP180;7517;48.400;11.770;2023-08-31T14:18:33;96326.00;;;21.00
14851;BMP180;7517;48.400;11.770;2023-08-31T14:21:01;96328.00;;;21.00
14851;BMP180;7517;48.400;11.770;2023-08-31T14:23:30;96324.00;;;21.00
14851;BMP180;7517;48.400;11.770;2023-08-31T14:26:01;96317.00;;;21.00
14851;BMP180;7517;48.400;11.770;2023-08-31T14:28:28;96311.00;;;21.10
14851;BMP180;7517;48.400;11.770;2023-08-31T14:30:57;96307.00;;;21.00
14851;BMP180;7517;48.400;11.770;2023-08-31T14:33:30;96311.00;;;21.10
14851;BMP180;7517;48.400;11.770;2023-08-31T14:35:57;96322.00;;;21.00
14851;BMP180;7517;48.400;11.770;2023-08-31T14:38:24;96317.00;;;21.10
14851;BMP180;7517;48.400;11.770;2023-08-31T14:40:53;96308.00;;;21.10
14851;BMP180;7517;48.400;11.770;2023-08-31T14:43:21;96307.00;;;21.10
14851;BMP180;7517;48.400;11.770;2023-08-31T14:45:49;96304.00;;;21.10
14851;BMP180;7517;48.400;11.770;2023-08-31T14:48:17;96315.00;;;21.10
14851;BMP180;7517;48.400;11.770;2023-08-31T14:50:45;96314.00;;;21.10
14851;BMP180;7517;48.400;11.770;2023-08-31T14:53:12;96314.00;;;21.10
14851;BMP180;7517;48.400;11.770;2023-08-31T14:55:40;96327.00;;;21.10
14851;BMP180;7517;48.400;11.770;2023-08-31T14:58:07;96319.00;;;21.20
14851;BMP180;7517;48.400;11.770;2023-08-31T15:00:34;96314.00;;;21.20
14851;BMP180;7517;48.400;11.770;2023-08-31T15:03:02;96314.00;;;21.30
14851;BMP180;7517;48.400;11.770;2023-08-31T15:05:31;96321.00;;;21.30
14851;BMP180;7517;48.400;11.770;2023-08-31T15:07:58;96329.00;;;21.30
14851;BMP180;7517;48.400;11.770;2023-08-31T15:10:27;96332.00;;;21.40
14851;BMP180;7517;48.400;11.770;2023-08-31T15:12:54;96331.00;;;21.40
14851;BMP180;7517;48.400;11.770;2023-08-31T15:15:25;96328.00;;;21.40
14851;BMP180;7517;48.400;11.770;2023-08-31T15:17:53;96335.00;;;21.40
14851;BMP180;7517;48.400;11.770;2023-08-31T15:20:21;96335.00;;;21.50
14851;BMP180;7517;48.400;11.770;2023-08-31T15:22:49;96325.00;;;21.50
14851;BMP180;7517;48.400;11.770;2023-08-31T15:25:17;96332.00;;;21.50
14851;BMP180;7517;48.400;11.770;2023-08-31T15:27:44;96334.00;;;21.50
14851;BMP180;7517;48.400;11.770;2023-08-31T15:30:13;96330.00;;;21.50
14851;BMP180;7517;48.400;11.770;2023-08-31T15:32:41;96318.00;;;21.50
14851;BMP180;7517;48.400;11.770;2023-08-31T15:35:08;96324.00;;;21.40
14851;BMP180;7517;48.400;11.770;2023-08-31T15:37:36;96330.00;;;21.40
14851;BMP180;7517;48.400;11.770;2023-08-31T15:40:06;96331.00;;;21.40
14851;BMP180;7517;48.400;11.770;2023-08-31T15:42:34;96326.00;;;21.40
14851;BMP180;7517;48.400;11.770;2023-08-31T15:45:01;96327.00;;;21.40
14851;BMP180;7517;48.400;11.770;2023-08-31T15:47:29;96335.00;;;21.40
14851;BMP180;7517;48.400;11.770;2023-08-31T15:49:57;96332.00;;;21.40